KBBG

Branson Airport

Airport
ICAO code
KBBG
Summary
ICAO Region
NAM
ICAO Territory
Location

Branson, Missouri,

Coordinates
36° 32' 19" N , 93° 11' 56" W
KCC
Metar
Observation
KBBG 061545Z 14012KT 10SM CLR 10/09 A3004
Station
BRANSON
Date/Time
2023-02-06 15:45:00
Wind direction
140°
Wind speed
12 kts
Lowest cloud amount
n/a
Temperature
10°C
Dew point
9°C
Humidity
93%
Weather condition
n/a

Description

Branson Airport is a public use airport located 15 km south-southeast of the central business district of Branson, a city in Taney County, Missouri.

Climatology

Humid continental climate (Köppen climate classification Dfa) - characterized by four seasons: cold, windy, snowy winters, mild springs, hot, humid summers, and crisp and relatively short autumns. Precipitation reaches its lowest in January and February and peaks in summer and latter half of spring.

Airport map

Aerial View

SKYbrary Partners:

Safety knowledge contributed by: